Time;durP1;ratioP1;P1;durP2;ratioP2;P2;SDS_P1;SDS_P2;PMS_P1;PMS_P2;Temp;Humidity;BMP_temperature;BMP_pressure;BME280_temperature;BME280_humidity;BME280_pressure;Samples;Min_cycle;Max_cycle;Signal;HPM_P1;HPM_P2
2021/08/07 00:02:20;;;;;;;10.90;4.43;;;15.20;99.90;;;;;;5053925;28;20033;-77
2021/08/07 00:04:45;;;;;;;11.30;4.75;;;15.20;99.90;;;;;;5053676;28;20036;-78
2021/08/07 00:07:11;;;;;;;11.35;4.97;;;15.30;99.90;;;;;;5053756;28;20025;-78
2021/08/07 00:09:37;;;;;;;13.30;4.45;;;15.30;99.90;;;;;;5053664;28;20032;-77
2021/08/07 00:12:03;;;;;;;12.30;4.47;;;15.30;99.90;;;;;;5054104;28;20078;-77
2021/08/07 00:14:29;;;;;;;14.35;4.70;;;15.30;99.90;;;;;;5053454;28;20508;-76
2021/08/07 00:16:54;;;;;;;13.90;4.80;;;15.40;99.90;;;;;;5053524;28;20033;-78
2021/08/07 00:19:20;;;;;;;;;;;15.50;99.90;;;;;;5053991;28;20025;-77
2021/08/07 00:21:46;;;;;;;;;;;15.50;99.90;;;;;;5053921;28;19905;-77
2021/08/07 00:24:11;;;;;;;;;;;15.50;99.90;;;;;;5035882;28;20384;-77
2021/08/07 00:26:37;;;;;;;;;;;15.50;99.90;;;;;;5053875;28;20365;-77
2021/08/07 00:29:02;;;;;;;;;;;15.50;99.90;;;;;;5053789;28;19905;-77
2021/08/07 00:31:28;;;;;;;;;;;15.40;99.90;;;;;;5053825;28;19904;-78
2021/08/07 00:33:54;;;;;;;;;;;15.50;99.90;;;;;;5053705;28;20285;-77
2021/08/07 00:36:19;;;;;;;13.95;5.18;;;15.40;99.90;;;;;;5053321;28;19988;-77
2021/08/07 00:38:45;;;;;;;14.02;5.18;;;15.50;99.90;;;;;;5053327;28;20063;-77
2021/08/07 00:41:11;;;;;;;50.40;29.77;;;15.50;99.90;;;;;;5053273;28;20013;-77
2021/08/07 00:43:36;;;;;;;19.02;5.28;;;15.50;99.90;;;;;;5053228;28;20052;-77
2021/08/07 00:46:02;;;;;;;;;;;15.50;99.90;;;;;;5053510;28;20017;-78
2021/08/07 00:48:28;;;;;;;12.48;5.20;;;15.50;99.90;;;;;;5053197;28;19928;-77
2021/08/07 00:50:54;;;;;;;21.20;5.63;;;15.40;99.90;;;;;;5053161;28;20098;-76
2021/08/07 00:53:21;;;;;;;18.45;6.03;;;15.40;99.90;;;;;;5053121;28;20021;-77
2021/08/07 00:55:47;;;;;;;19.42;6.10;;;15.30;99.90;;;;;;5053020;28;20056;-77
2021/08/07 00:58:13;;;;;;;13.70;5.45;;;15.40;99.90;;;;;;5053055;28;20162;-76
2021/08/07 01:00:39;;;;;;;;;;;15.50;99.90;;;;;;5053434;28;20490;-77
2021/08/07 01:03:23;;;;;;;;;;;15.50;99.90;;;;;;5035511;28;19944;-76
2021/08/07 01:06:00;;;;;;;17.15;6.15;;;15.40;99.90;;;;;;5052928;28;19916;-77
2021/08/07 01:08:36;;;;;;;18.20;6.25;;;15.40;99.90;;;;;;5034865;28;20017;-78
2021/08/07 01:11:43;;;;;;;17.73;7.35;;;15.40;99.90;;;;;;5052980;28;20021;-77
2021/08/07 01:14:10;;;;;;;15.48;9.02;;;15.40;99.90;;;;;;5053041;28;20029;-77
2021/08/07 01:16:41;;;;;;;17.85;8.50;;;15.30;99.90;;;;;;5052939;28;20114;-77
2021/08/07 01:19:14;;;;;;;19.95;7.45;;;15.50;99.90;;;;;;5052885;28;20025;-76
2021/08/07 01:21:49;;;;;;;20.45;6.40;;;15.40;99.90;;;;;;5053154;28;20029;-77
2021/08/07 01:24:23;;;;;;;21.10;7.63;;;15.40;99.90;;;;;;5052746;28;20025;-77
2021/08/07 01:26:55;;;;;;;17.48;5.60;;;15.50;99.90;;;;;;5054283;28;20040;-77
2021/08/07 01:29:22;;;;;;;16.73;5.55;;;15.60;99.90;;;;;;5056924;28;20049;-77
2021/08/07 01:31:50;;;;;;;17.45;6.43;;;15.60;99.90;;;;;;5056791;28;20112;-77
2021/08/07 01:34:17;;;;;;;16.92;5.32;;;15.60;99.90;;;;;;5038580;28;20021;-77
2021/08/07 01:36:44;;;;;;;21.35;6.22;;;15.70;99.90;;;;;;5056641;28;20029;-76
2021/08/07 01:39:10;;;;;;;18.25;5.97;;;15.60;99.90;;;;;;5056460;28;20021;-77
2021/08/07 01:41:36;;;;;;;;;;;15.50;99.90;;;;;;5038902;28;20029;-76
2021/08/07 01:44:02;;;;;;;19.80;6.18;;;15.50;99.90;;;;;;5056333;28;19917;-77
2021/08/07 01:46:37;;;;;;;17.83;7.78;;;15.60;99.90;;;;;;5056384;28;20480;-77
2021/08/07 01:49:14;;;;;;;18.50;6.60;;;15.50;99.90;;;;;;5056473;28;20469;-76
2021/08/07 01:51:53;;;;;;;15.40;5.72;;;15.60;99.90;;;;;;5056357;28;20104;-76
2021/08/07 01:54:25;;;;;;;19.02;5.97;;;15.70;99.90;;;;;;5056695;28;20373;-77
2021/08/07 01:56:54;;;;;;;14.90;5.63;;;15.70;99.90;;;;;;5056242;28;20572;-76
2021/08/07 01:59:22;;;;;;;17.02;5.90;;;15.70;99.90;;;;;;5038156;28;20032;-78
2021/08/07 02:01:49;;;;;;;22.80;6.75;;;15.80;99.90;;;;;;5038121;28;20036;-77
2021/08/07 02:04:18;;;;;;;18.02;6.57;;;15.80;99.90;;;;;;5055886;28;20362;-77
2021/08/07 02:06:45;;;;;;;22.60;6.53;;;15.70;99.90;;;;;;5056178;28;20025;-76
2021/08/07 02:09:12;;;;;;;16.58;7.20;;;15.60;99.90;;;;;;5055889;28;20024;-77
2021/08/07 02:11:42;;;;;;;18.00;7.45;;;15.60;99.90;;;;;;5055930;28;20028;-77
2021/08/07 02:14:09;;;;;;;19.25;6.07;;;15.70;99.90;;;;;;5055909;28;20036;-77
2021/08/07 02:16:37;;;;;;;16.45;6.70;;;15.70;99.90;;;;;;5056330;28;20021;-77
2021/08/07 02:19:04;;;;;;;15.60;6.28;;;15.70;99.90;;;;;;5055723;28;20032;-77
2021/08/07 02:21:31;;;;;;;21.40;7.05;;;15.70;99.90;;;;;;5055725;28;20470;-77
2021/08/07 02:23:57;;;;;;;18.48;8.13;;;15.60;99.90;;;;;;5055442;28;20021;-78
2021/08/07 02:26:24;;;;;;;;;;;15.40;99.90;;;;;;5055943;28;20028;-80
2021/08/07 02:28:51;;;;;;;19.30;6.53;;;15.40;99.90;;;;;;5055563;28;20427;-77
2021/08/07 02:31:19;;;;;;;20.50;6.72;;;15.40;99.90;;;;;;5055508;28;20017;-79
2021/08/07 02:33:45;;;;;;;17.50;6.72;;;15.50;99.90;;;;;;5055441;28;20075;-77
2021/08/07 02:36:13;;;;;;;19.45;6.50;;;15.50;99.90;;;;;;5055417;28;20079;-75
2021/08/07 02:38:40;;;;;;;16.90;5.68;;;15.50;99.90;;;;;;5054975;28;20059;-77
2021/08/07 02:41:06;;;;;;;17.30;7.68;;;15.60;99.90;;;;;;5055275;28;20104;-79
2021/08/07 02:43:33;;;;;;;16.67;7.07;;;15.60;99.90;;;;;;5055037;28;20045;-79
2021/08/07 02:45:59;;;;;;;40.58;14.65;;;15.50;99.90;;;;;;5055177;28;20032;-82
2021/08/07 02:48:27;;;;;;;18.50;6.50;;;15.50;99.90;;;;;;5055134;28;20048;-80
2021/08/07 02:50:54;;;;;;;24.38;7.35;;;15.40;99.90;;;;;;5055366;28;20025;-79
2021/08/07 02:53:20;;;;;;;18.40;7.18;;;15.30;99.90;;;;;;5055096;28;20024;-79
2021/08/07 02:55:46;;;;;;;15.95;6.43;;;15.30;99.90;;;;;;5055160;28;20021;-80
2021/08/07 02:58:12;;;;;;;;;;;15.30;99.90;;;;;;5037385;28;20059;-81
2021/08/07 03:00:38;;;;;;;19.55;5.88;;;15.30;99.90;;;;;;5036999;28;19931;-81
2021/08/07 03:03:04;;;;;;;;;;;15.40;99.90;;;;;;5055256;28;20029;-80
2021/08/07 03:05:30;;;;;;;15.05;6.00;;;15.40;99.90;;;;;;5054763;28;19909;-80
2021/08/07 03:07:56;;;;;;;;;;;15.40;99.90;;;;;;5055148;28;20028;-83
2021/08/07 03:10:21;;;;;;;15.52;5.68;;;15.50;99.90;;;;;;5054880;28;19931;-82
2021/08/07 03:12:49;;;;;;;15.35;6.10;;;15.40;99.90;;;;;;5054751;28;20056;-83
2021/08/07 03:15:16;;;;;;;17.55;6.43;;;15.40;99.90;;;;;;5036813;28;20037;-82
2021/08/07 03:17:41;;;;;;;13.55;6.05;;;15.40;99.90;;;;;;5054556;28;20032;-82
2021/08/07 03:20:08;;;;;;;;;;;15.50;99.90;;;;;;5055529;28;20025;-81
2021/08/07 03:22:34;;;;;;;20.50;5.88;;;15.40;99.90;;;;;;5054552;28;19932;-81
2021/08/07 03:25:00;;;;;;;38.75;17.85;;;15.50;99.90;;;;;;5054544;28;20025;-80
2021/08/07 03:27:26;;;;;;;;;;;15.40;99.90;;;;;;5054823;28;20029;-80
2021/08/07 03:29:51;;;;;;;14.00;5.15;;;15.50;99.90;;;;;;5054452;28;19930;-81
2021/08/07 03:32:17;;;;;;;12.52;5.45;;;15.50;99.90;;;;;;5054335;28;20033;-80
2021/08/07 03:34:44;;;;;;;17.23;6.13;;;15.50;99.90;;;;;;5054289;28;20025;-79
2021/08/07 03:37:10;;;;;;;17.52;6.05;;;15.50;99.90;;;;;;5054236;28;20052;-81
2021/08/07 03:39:36;;;;;;;19.10;7.90;;;15.60;99.90;;;;;;5054153;28;20025;-80
2021/08/07 03:42:02;;;;;;;20.58;6.22;;;15.40;99.90;;;;;;5054150;28;20021;-81
2021/08/07 03:44:28;;;;;;;;;;;15.40;99.90;;;;;;5054199;28;20048;-78
2021/08/07 03:46:53;;;;;;;15.40;5.93;;;15.40;99.90;;;;;;5054114;28;19905;-79
2021/08/07 03:49:19;;;;;;;;;;;15.40;99.90;;;;;;5054008;28;20021;-79
2021/08/07 03:51:45;;;;;;;;;;;15.40;99.90;;;;;;5054748;28;19905;-80
2021/08/07 03:54:10;;;;;;;;;;;15.40;99.90;;;;;;5054350;28;19931;-80
2021/08/07 03:56:36;;;;;;;;;;;15.40;99.90;;;;;;5054339;28;20281;-80
2021/08/07 03:59:01;;;;;;;;;;;15.30;99.90;;;;;;5054192;28;19912;-80
2021/08/07 04:01:27;;;;;;;;;;;15.30;99.90;;;;;;5054384;28;19909;-79
2021/08/07 04:03:52;;;;;;;;;;;15.30;99.90;;;;;;5054186;28;20254;-80
2021/08/07 04:06:18;;;;;;;16.35;5.50;;;15.30;99.90;;;;;;5053747;28;19905;-79
2021/08/07 04:08:44;;;;;;;;;;;15.30;99.90;;;;;;5054061;28;20432;-80
2021/08/07 04:11:09;;;;;;;15.02;5.40;;;15.30;99.90;;;;;;5035763;28;19949;-81
2021/08/07 04:13:35;;;;;;;12.27;5.10;;;15.30;99.90;;;;;;5053546;28;20029;-80
2021/08/07 04:16:02;;;;;;;11.43;5.07;;;15.30;99.90;;;;;;5053538;28;20040;-80
2021/08/07 04:18:27;;;;;;;14.15;5.35;;;15.30;99.90;;;;;;5053487;28;20560;-78
2021/08/07 04:20:54;;;;;;;;;;;15.30;99.90;;;;;;5053860;28;20100;-80
2021/08/07 04:23:20;;;;;;;20.52;5.57;;;15.20;99.90;;;;;;5035516;28;20037;-80
2021/08/07 04:25:46;;;;;;;;;;;15.20;99.90;;;;;;5053745;28;20197;-80
2021/08/07 04:28:11;;;;;;;15.80;5.85;;;15.30;99.90;;;;;;5053341;28;19944;-79
2021/08/07 04:30:37;;;;;;;19.00;5.82;;;15.30;99.90;;;;;;5053303;28;20029;-80
2021/08/07 04:33:04;;;;;;;19.73;6.00;;;15.30;99.90;;;;;;5053531;28;20025;-79
2021/08/07 04:35:29;;;;;;;17.02;5.70;;;15.20;99.90;;;;;;5053255;28;20028;-79
2021/08/07 04:37:56;;;;;;;;;;;15.30;99.90;;;;;;5053820;28;20025;-80
2021/08/07 04:40:25;;;;;;;17.25;5.30;;;15.30;99.90;;;;;;5053242;28;20277;-80
2021/08/07 04:42:51;;;;;;;16.70;5.60;;;15.30;99.90;;;;;;5053169;28;20025;-80
2021/08/07 04:45:17;;;;;;;;;;;15.30;99.90;;;;;;5053099;28;20405;-80
2021/08/07 04:47:55;;;;;;;13.13;5.43;;;15.30;99.90;;;;;;5053200;28;19905;-81
2021/08/07 04:50:22;;;;;;;15.85;5.38;;;15.30;99.90;;;;;;5053370;28;20021;-79
2021/08/07 04:52:47;;;;;;;19.33;5.80;;;15.30;99.90;;;;;;5053198;28;20112;-79
2021/08/07 04:55:13;;;;;;;;;;;15.40;99.90;;;;;;5053583;28;20068;-80
2021/08/07 04:57:39;;;;;;;14.13;5.32;;;15.40;99.90;;;;;;5053021;28;19992;-80
2021/08/07 05:00:05;;;;;;;15.15;5.50;;;15.40;99.90;;;;;;5053383;28;20033;-80
2021/08/07 05:02:31;;;;;;;22.98;6.38;;;15.40;99.90;;;;;;5057478;28;20033;-80
2021/08/07 05:04:57;;;;;;;;;;;15.30;99.90;;;;;;5057579;28;20204;-80
2021/08/07 05:07:22;;;;;;;;;;;15.40;99.90;;;;;;5057470;28;19904;-80
2021/08/07 05:09:48;;;;;;;;;;;15.50;99.90;;;;;;5057509;28;19959;-80
2021/08/07 05:12:13;;;;;;;;;;;15.40;99.90;;;;;;5057406;28;19909;-80
2021/08/07 05:14:39;;;;;;;;;;;15.40;99.90;;;;;;5057375;28;20364;-79
2021/08/07 05:17:04;;;;;;;;;;;15.40;99.90;;;;;;5057509;28;19951;-81
2021/08/07 05:19:30;;;;;;;18.80;5.32;;;15.40;99.90;;;;;;5056942;28;19905;-81
2021/08/07 05:21:56;;;;;;;;;;;15.40;99.90;;;;;;5039335;28;20107;-79
2021/08/07 05:24:22;;;;;;;19.27;5.60;;;15.40;99.90;;;;;;5056649;28;19908;-80
2021/08/07 05:26:47;;;;;;;;;;;15.40;99.90;;;;;;5057354;28;20485;-79
2021/08/07 05:29:13;;;;;;;;;;;15.50;99.90;;;;;;5057126;28;19912;-80
2021/08/07 05:31:38;;;;;;;;;;;15.40;99.90;;;;;;5057137;28;20357;-81
2021/08/07 05:34:04;;;;;;;;;;;15.70;99.90;;;;;;5057059;28;19954;-80
2021/08/07 05:36:29;;;;;;;;;;;15.70;99.90;;;;;;5056974;28;20388;-77
2021/08/07 05:38:55;;;;;;;;;;;15.70;99.90;;;;;;5039032;28;19905;-78
2021/08/07 05:41:20;;;;;;;;;;;15.70;99.90;;;;;;5056917;28;19970;-78
2021/08/07 05:43:46;;;;;;;;;;;15.70;99.90;;;;;;5056582;28;19917;-80
2021/08/07 05:46:12;;;;;;;25.10;6.72;;;15.70;99.90;;;;;;5056398;28;20274;-78
2021/08/07 05:48:38;;;;;;;23.00;6.15;;;15.70;99.90;;;;;;5038360;28;20127;-78
2021/08/07 05:51:03;;;;;;;23.52;5.82;;;15.60;99.90;;;;;;5056292;28;20071;-78
2021/08/07 05:53:29;;;;;;;25.25;9.73;;;15.70;99.90;;;;;;5056212;28;20114;-76
2021/08/07 05:55:55;;;;;;;19.00;6.05;;;15.80;99.90;;;;;;5038233;28;20497;-78
2021/08/07 05:58:21;;;;;;;17.13;5.78;;;15.90;99.90;;;;;;5056355;28;20033;-78
2021/08/07 06:00:48;;;;;;;16.45;6.22;;;16.00;99.90;;;;;;5056035;28;20021;-78
2021/08/07 06:03:13;;;;;;;20.42;6.38;;;16.10;99.90;;;;;;5038173;28;20029;-78
2021/08/07 06:05:39;;;;;;;;;;;16.20;99.90;;;;;;5056266;28;20385;-78
2021/08/07 06:08:05;;;;;;;23.08;6.13;;;16.30;99.90;;;;;;5055984;28;19905;-77
2021/08/07 06:10:31;;;;;;;23.85;6.22;;;16.30;99.90;;;;;;5055889;28;20028;-79
2021/08/07 06:12:57;;;;;;;;;;;16.40;99.90;;;;;;5055601;28;20025;-78
2021/08/07 06:15:23;;;;;;;20.63;5.60;;;16.50;99.90;;;;;;5037888;28;19954;-78
2021/08/07 06:17:49;;;;;;;18.25;5.43;;;16.50;99.90;;;;;;5055783;28;20021;-78
2021/08/07 06:20:15;;;;;;;;;;;16.50;99.90;;;;;;5056122;28;20032;-78
2021/08/07 06:22:41;;;;;;;19.27;5.75;;;16.40;99.90;;;;;;5055888;28;19904;-79
2021/08/07 06:25:07;;;;;;;;;;;16.30;99.90;;;;;;5055890;28;20496;-79
2021/08/07 06:27:33;;;;;;;28.02;6.32;;;16.20;99.90;;;;;;5055584;28;20369;-77
2021/08/07 06:29:59;;;;;;;;;;;16.20;99.90;;;;;;5038000;28;20028;-78
2021/08/07 06:32:25;;;;;;;22.40;6.15;;;16.20;99.90;;;;;;5037588;28;19905;-77
2021/08/07 06:34:51;;;;;;;29.58;7.47;;;16.20;99.90;;;;;;5055439;28;20028;-78
2021/08/07 06:37:16;;;;;;;;;;;16.20;99.90;;;;;;5055767;28;20542;-78
2021/08/07 06:39:42;;;;;;;24.75;7.05;;;16.30;99.90;;;;;;5055303;28;20377;-79
2021/08/07 06:42:08;;;;;;;;;;;16.30;99.90;;;;;;5055889;28;20033;-79
2021/08/07 06:44:35;;;;;;;17.70;6.65;;;16.30;99.90;;;;;;5054980;28;19916;-78
2021/08/07 06:47:00;;;;;;;25.73;6.25;;;16.40;99.90;;;;;;5055157;28;20017;-78
2021/08/07 06:49:26;;;;;;;;;;;16.50;99.90;;;;;;5055609;28;20107;-79
2021/08/07 06:51:52;;;;;;;32.47;6.50;;;16.60;99.90;;;;;;5055508;28;19954;-78
2021/08/07 06:54:18;;;;;;;;;;;16.60;99.90;;;;;;5055456;28;20108;-79
2021/08/07 06:56:48;;;;;;;27.08;6.50;;;16.70;99.90;;;;;;5055140;28;19909;-77
2021/08/07 06:59:14;;;;;;;30.02;6.78;;;16.90;99.90;;;;;;5054977;28;20033;-77
2021/08/07 07:01:40;;;;;;;78.35;44.20;;;16.80;99.90;;;;;;5054923;28;20021;-77
2021/08/07 07:04:05;;;;;;;;;;;16.90;99.90;;;;;;5055384;28;20035;-77
2021/08/07 07:06:31;;;;;;;29.38;12.13;;;17.00;99.90;;;;;;5054876;28;19909;-79
2021/08/07 07:08:57;;;;;;;;;;;17.40;99.90;;;;;;5055247;28;20052;-79
2021/08/07 07:11:22;;;;;;;86.05;54.25;;;17.40;99.90;;;;;;5054752;28;19911;-76
2021/08/07 07:13:48;;;;;;;26.02;8.82;;;17.80;99.90;;;;;;5054699;28;20055;-79
2021/08/07 07:16:14;;;;;;;78.28;42.92;;;18.10;99.90;;;;;;5054711;28;20444;-77
2021/08/07 07:18:40;;;;;;;34.90;13.48;;;17.80;99.90;;;;;;5036722;28;20029;-79
2021/08/07 07:21:06;;;;;;;20.55;8.90;;;17.80;99.90;;;;;;5054497;28;20035;-78
2021/08/07 07:23:32;;;;;;;22.23;7.40;;;18.60;99.90;;;;;;5053996;28;20100;-78
2021/08/07 07:25:58;;;;;;;23.40;8.15;;;18.30;99.90;;;;;;5054109;28;20031;-78
2021/08/07 07:28:23;;;;;;;20.38;7.57;;;18.60;99.90;;;;;;5054224;28;20041;-77
2021/08/07 07:30:51;;;;;;;22.92;6.88;;;18.80;99.90;;;;;;5054382;28;20044;-76
2021/08/07 07:33:16;;;;;;;25.73;8.63;;;18.00;99.90;;;;;;5054306;28;20025;-78
2021/08/07 07:35:42;;;;;;;23.40;7.70;;;18.00;99.90;;;;;;5054268;28;20021;-78
2021/08/07 07:38:08;;;;;;;22.02;6.70;;;17.90;99.90;;;;;;5054180;28;20489;-78
2021/08/07 07:40:34;;;;;;;30.30;8.77;;;18.10;99.90;;;;;;5054351;28;20032;-77
2021/08/07 07:43:00;;;;;;;54.55;33.05;;;17.60;99.90;;;;;;5053971;28;20024;-78
2021/08/07 07:45:29;;;;;;;33.05;14.02;;;17.80;99.90;;;;;;5036137;28;20021;-77
2021/08/07 07:47:55;;;;;;;62.72;31.65;;;18.50;99.90;;;;;;5054023;28;20025;-79
2021/08/07 07:50:21;;;;;;;61.22;34.92;;;18.20;99.90;;;;;;5053959;28;20029;-77
2021/08/07 07:52:48;;;;;;;23.45;8.73;;;17.60;99.90;;;;;;5053907;28;20382;-78
2021/08/07 07:55:14;;;;;;;52.83;26.10;;;17.80;99.90;;;;;;5054015;28;20028;-77
2021/08/07 07:57:39;;;;;;;43.22;23.45;;;17.90;99.90;;;;;;5035893;28;20047;-77
2021/08/07 08:00:07;;;;;;;25.88;12.57;;;18.50;99.90;;;;;;5053834;28;20051;-78
2021/08/07 08:02:32;;;;;;;107.15;61.42;;;19.00;99.90;;;;;;5053757;28;20031;-77
2021/08/07 08:04:58;;;;;;;23.20;8.20;;;18.70;99.90;;;;;;5053658;28;20104;-77
2021/08/07 08:07:24;;;;;;;142.52;86.00;;;18.30;99.90;;;;;;5053635;28;20025;-78
2021/08/07 08:09:50;;;;;;;21.90;9.13;;;17.90;99.90;;;;;;5053695;28;20477;-77
2021/08/07 08:12:16;;;;;;;32.47;16.38;;;18.30;99.90;;;;;;5054229;28;20092;-77
2021/08/07 08:14:42;;;;;;;19.73;6.28;;;19.00;99.90;;;;;;5035806;28;20485;-77
2021/08/07 08:17:08;;;;;;;16.77;6.07;;;18.80;99.90;;;;;;5053603;28;20174;-76
2021/08/07 08:19:34;;;;;;;21.02;6.63;;;19.10;99.90;;;;;;5035770;28;20028;-77
2021/08/07 08:21:59;;;;;;;23.17;6.93;;;19.10;99.90;;;;;;5053530;28;20032;-78
2021/08/07 08:24:25;;;;;;;20.83;9.10;;;18.40;99.90;;;;;;5053357;28;20100;-77
2021/08/07 08:26:51;;;;;;;65.55;37.92;;;18.00;99.90;;;;;;5053621;28;20025;-76
2021/08/07 08:29:17;;;;;;;21.70;7.97;;;17.70;99.90;;;;;;5053409;28;20021;-77
2021/08/07 08:31:43;;;;;;;136.65;78.03;;;17.90;99.90;;;;;;5053367;28;20017;-78
2021/08/07 08:34:08;;;;;;;20.08;10.65;;;18.00;99.90;;;;;;5053467;28;20017;-79
2021/08/07 08:36:34;;;;;;;;;;;17.60;99.90;;;;;;5053334;28;20056;-77
2021/08/07 08:39:00;;;;;;;71.55;53.67;;;17.50;99.90;;;;;;5035438;28;19904;-77
2021/08/07 08:41:27;;;;;;;45.50;31.92;;;18.20;99.90;;;;;;5053325;28;20017;-76
2021/08/07 08:43:52;;;;;;;112.45;65.22;;;19.30;99.90;;;;;;5052670;28;20052;-76
2021/08/07 08:46:20;;;;;;;82.97;51.15;;;19.80;99.90;;;;;;5053306;28;20048;-78
2021/08/07 08:48:46;;;;;;;87.95;58.30;;;19.00;99.90;;;;;;5053005;28;20023;-76
2021/08/07 08:51:14;;;;;;;18.13;12.65;;;18.70;99.90;;;;;;5053177;28;20025;-77
2021/08/07 08:53:41;;;;;;;32.70;18.13;;;18.60;99.90;;;;;;5053249;28;20447;-76
2021/08/07 08:56:08;;;;;;;32.15;23.42;;;18.40;99.90;;;;;;5053070;28;20029;-77
2021/08/07 08:58:35;;;;;;;72.20;47.15;;;18.50;99.90;;;;;;5053087;28;20017;-78
2021/08/07 09:01:04;;;;;;;44.70;30.63;;;19.10;99.90;;;;;;5053231;28;20059;-77
2021/08/07 09:03:30;;;;;;;14.13;5.95;;;19.40;99.90;;;;;;5052987;28;20017;-76
2021/08/07 09:05:55;;;;;;;146.40;94.13;;;19.40;99.90;;;;;;5052987;28;20473;-77
2021/08/07 09:08:21;;;;;;;61.20;36.72;;;18.90;99.90;;;;;;5053167;28;20021;-75
2021/08/07 09:10:48;;;;;;;118.90;67.68;;;19.10;99.90;;;;;;5034997;28;20370;-77
2021/08/07 09:13:22;;;;;;;13.45;6.25;;;19.20;99.90;;;;;;5053065;28;20048;-77
2021/08/07 09:15:48;;;;;;;10.35;6.05;;;20.00;99.90;;;;;;5052958;28;20115;-76
2021/08/07 09:18:16;;;;;;;13.65;5.97;;;20.90;99.90;;;;;;5035159;28;20494;-77
2021/08/07 09:20:44;;;;;;;14.70;7.60;;;22.20;99.90;;;;;;5052853;28;20385;-78
2021/08/07 09:23:10;;;;;;;28.38;23.08;;;22.40;99.90;;;;;;5052759;28;20017;-78
2021/08/07 09:25:41;;;;;;;131.18;104.63;;;22.40;99.90;;;;;;5052637;28;20104;-77
2021/08/07 09:28:07;;;;;;;34.92;31.65;;;22.00;99.90;;;;;;5052826;28;20028;-76
2021/08/07 09:30:37;;;;;;;114.25;85.65;;;22.40;99.90;;;;;;5052978;28;20028;-78
2021/08/07 09:33:09;;;;;;;23.25;20.98;;;23.30;99.90;;;;;;5052707;28;20032;-78
2021/08/07 09:35:45;;;;;;;13.20;10.70;;;23.10;99.90;;;;;;5052725;28;20021;-79
2021/08/07 09:38:22;;;;;;;;;;;24.10;99.10;;;;;;5053644;28;20100;-80
2021/08/07 09:40:54;;;;;;;180.68;163.95;;;24.50;98.60;;;;;;5034689;28;19908;-79
2021/08/07 09:43:24;;;;;;;23.45;21.40;;;23.00;98.50;;;;;;5052644;28;20128;-81
2021/08/07 09:46:02;;;;;;;61.90;56.15;;;24.00;99.10;;;;;;5052570;28;20108;-78
2021/08/07 09:48:40;;;;;;;107.70;82.40;;;22.30;99.90;;;;;;5037183;28;20025;-77
2021/08/07 09:51:27;;;;;;;13.55;10.30;;;20.70;99.90;;;;;;5056333;28;20025;-77
2021/08/07 09:54:18;;;;;;;23.17;20.83;;;22.60;99.90;;;;;;5056508;28;20032;-79
2021/08/07 09:56:47;;;;;;;15.07;10.90;;;23.10;99.90;;;;;;5056400;28;20025;-78
2021/08/07 09:59:14;;;;;;;9.35;4.53;;;21.40;99.90;;;;;;5056071;28;20100;-78
2021/08/07 10:01:40;;;;;;;15.60;10.57;;;21.40;99.90;;;;;;5056110;28;20021;-78
2021/08/07 10:04:10;;;;;;;73.32;66.18;;;22.90;99.90;;;;;;5055966;28;20489;-76
2021/08/07 10:06:36;;;;;;;20.77;18.75;;;24.20;98.90;;;;;;5056132;28;20017;-78
2021/08/07 10:09:03;;;;;;;20.95;19.17;;;26.10;95.50;;;;;;5038006;28;20025;-80
2021/08/07 10:11:29;;;;;;;180.93;161.32;;;27.20;91.40;;;;;;5055829;28;20028;-79
2021/08/07 10:13:56;;;;;;;13.65;12.25;;;23.80;93.00;;;;;;5056403;28;20025;-78
2021/08/07 10:16:22;;;;;;;81.55;73.28;;;25.00;95.50;;;;;;5037913;28;20021;-80
2021/08/07 10:18:50;;;;;;;60.08;55.47;;;27.20;88.40;;;;;;5055747;28;20559;-80
2021/08/07 10:21:17;;;;;;;60.95;54.80;;;28.40;83.20;;;;;;5037860;28;20447;-80
2021/08/07 10:23:43;;;;;;;56.63;48.22;;;28.70;79.70;;;;;;5055512;28;20023;-80
2021/08/07 10:26:12;;;;;;;64.07;57.13;;;28.70;76.00;;;;;;5055531;28;20024;-80
2021/08/07 10:28:45;;;;;;;11.40;10.30;;;28.90;75.40;;;;;;5055642;28;20129;-79
2021/08/07 10:31:13;;;;;;;54.03;49.92;;;29.80;74.70;;;;;;5055578;28;20021;-80
2021/08/07 10:33:43;;;;;;;122.25;109.45;;;26.60;76.50;;;;;;5055476;28;20441;-78
2021/08/07 10:36:10;;;;;;;72.97;65.68;;;23.60;89.40;;;;;;5055364;28;20036;-77
2021/08/07 10:38:41;;;;;;;150.02;135.35;;;24.70;89.60;;;;;;5055525;28;20025;-79
2021/08/07 10:41:07;;;;;;;101.07;92.45;;;26.90;81.80;;;;;;5036902;28;20071;-80
2021/08/07 10:43:36;;;;;;;30.13;27.77;;;28.50;71.60;;;;;;5053689;28;20045;-79
2021/08/07 10:46:07;;;;;;;74.78;67.65;;;29.70;68.30;;;;;;5035991;28;20028;-80
2021/08/07 10:48:34;;;;;;;44.40;40.55;;;29.40;61.80;;;;;;5054244;28;20029;-79
2021/08/07 10:51:00;;;;;;;112.18;101.85;;;28.20;64.10;;;;;;5054563;28;20025;-80
2021/08/07 10:53:38;;;;;;;39.40;36.30;;;25.80;73.20;;;;;;5054519;28;20669;-79
2021/08/07 10:56:04;;;;;;;31.83;29.45;;;27.20;71.60;;;;;;5054571;28;20026;-79
2021/08/07 10:58:31;;;;;;;40.25;36.70;;;26.40;74.60;;;;;;5036683;28;20478;-79
2021/08/07 11:01:19;;;;;;;31.30;28.85;;;27.90;75.10;;;;;;5054937;28;20032;-80
2021/08/07 11:04:02;;;;;;;26.60;24.65;;;30.30;66.90;;;;;;5036909;28;20028;-81
2021/08/07 11:06:43;;;;;;;151.98;128.20;;;31.10;60.20;;;;;;5036723;28;20106;-80
2021/08/07 11:09:36;;;;;;;113.40;102.50;;;30.60;59.30;;;;;;5054972;28;20021;-80
2021/08/07 11:12:11;;;;;;;66.32;59.28;;;27.60;71.40;;;;;;5048294;28;20029;-79
2021/08/07 11:14:40;;;;;;;82.03;73.78;;;30.40;60.50;;;;;;5036789;28;20085;-78
2021/08/07 11:17:05;;;;;;;107.45;96.80;;;28.30;63.20;;;;;;5054657;28;20025;-80
2021/08/07 11:19:56;;;;;;;27.63;25.20;;;27.20;64.10;;;;;;5036773;28;20032;-79
2021/08/07 11:25:09;;;;;;;139.68;124.38;;;26.70;68.60;;;;;;5054410;28;20371;-80
2021/08/07 11:30:33;;;;;;;41.15;35.90;;;25.00;76.00;;;;;;5054406;28;20057;-78
2021/08/07 11:35:30;;;;;;;53.38;39.20;;;23.70;79.70;;;;;;5054219;28;20029;-78
2021/08/07 11:38:15;;;;;;;121.90;96.05;;;23.10;85.40;;;;;;5036334;28;20032;-78
2021/08/07 11:40:44;;;;;;;;;;;23.10;87.20;;;;;;5054612;28;20021;-80
2021/08/07 11:43:19;;;;;;;95.07;65.38;;;24.00;86.10;;;;;;5053961;28;19904;-77
2021/08/07 11:45:46;;;;;;;43.42;36.65;;;24.30;83.60;;;;;;5054587;28;20073;-78
2021/08/07 11:48:22;;;;;;;9.73;5.70;;;23.70;85.00;;;;;;5054085;28;20108;-78
2021/08/07 11:50:48;;;;;;;27.75;18.92;;;22.40;91.00;;;;;;5054070;28;20063;-78
2021/08/07 11:53:16;;;;;;;71.63;35.13;;;21.80;99.00;;;;;;5053983;28;20116;-79
2021/08/07 11:55:42;;;;;;;10.88;7.00;;;20.90;99.90;;;;;;5054020;28;20508;-78
2021/08/07 11:58:11;;;;;;;9.40;4.72;;;20.60;99.90;;;;;;5053801;28;20029;-78
2021/08/07 12:00:39;;;;;;;8.38;4.90;;;21.70;99.90;;;;;;5053834;28;20100;-78
2021/08/07 12:03:10;;;;;;;140.63;91.40;;;22.00;99.90;;;;;;5053773;28;20074;-77
2021/08/07 12:05:38;;;;;;;78.30;52.03;;;22.10;99.70;;;;;;5053914;28;20473;-77
2021/08/07 12:08:10;;;;;;;77.13;68.18;;;24.30;96.50;;;;;;5053686;28;20021;-79
2021/08/07 12:10:46;;;;;;;32.63;29.27;;;25.20;95.60;;;;;;5053149;28;20025;-78
2021/08/07 12:13:11;;;;;;;88.00;75.55;;;25.00;92.60;;;;;;5054012;28;20124;-80
2021/08/07 12:15:37;;;;;;;30.77;25.65;;;25.70;88.40;;;;;;5053638;28;20449;-79
2021/08/07 12:18:03;;;;;;;346.42;259.13;;;25.70;89.80;;;;;;5053457;28;20489;-79
2021/08/07 12:20:29;;;;;;;81.28;73.10;;;24.60;89.20;;;;;;5053465;28;20390;-79
2021/08/07 12:23:04;;;;;;;125.85;104.28;;;25.60;85.40;;;;;;5053663;28;20074;-79
2021/08/07 12:25:32;;;;;;;29.58;23.20;;;25.20;84.80;;;;;;5053631;28;20025;-79
2021/08/07 12:28:05;;;;;;;80.35;72.47;;;25.80;82.90;;;;;;5053546;28;20122;-78
2021/08/07 12:30:32;;;;;;;35.03;31.95;;;24.50;85.30;;;;;;5035520;28;20021;-79
2021/08/07 12:33:19;;;;;;;263.77;220.65;;;26.80;81.50;;;;;;5053246;28;20032;-78
2021/08/07 12:35:45;;;;;;;25.35;21.77;;;23.90;88.10;;;;;;5053279;28;20440;-77
2021/08/07 12:38:28;;;;;;;72.32;61.85;;;23.70;90.80;;;;;;5053199;28;20033;-77
2021/08/07 12:40:59;;;;;;;130.43;92.82;;;24.10;90.40;;;;;;5053574;28;20017;-79
2021/08/07 12:43:32;;;;;;;138.70;101.18;;;25.30;86.10;;;;;;5038587;28;20048;-79
2021/08/07 12:46:00;;;;;;;51.53;46.13;;;26.40;81.60;;;;;;5073618;28;20476;-79
2021/08/07 12:48:27;;;;;;;30.67;27.73;;;26.10;79.10;;;;;;5071981;28;20021;-79
2021/08/07 12:51:00;;;;;;;91.32;69.75;;;25.30;85.60;;;;;;5071893;28;20404;-80
2021/08/07 12:53:43;;;;;;;82.20;53.00;;;24.10;90.00;;;;;;5073344;28;20051;-78
2021/08/07 12:56:10;;;;;;;11.07;6.55;;;22.50;92.50;;;;;;5073222;28;20024;-78
2021/08/07 12:58:37;;;;;;;153.48;95.43;;;22.10;94.80;;;;;;5071844;28;20477;-78
2021/08/07 13:01:13;;;;;;;38.83;20.70;;;21.90;95.20;;;;;;5073042;28;20020;-78
2021/08/07 13:03:59;;;;;;;79.28;46.60;;;22.20;96.20;;;;;;5073232;28;20028;-78